sensor_id;sensor_type;location;lat;lon;timestamp;pressure;altitude;pressure_sealevel;temperature
73265;BMP280;61493;51.008;14.088;2022-09-01T00:01:34;98478.34;;;11.63
73265;BMP280;61493;51.008;14.088;2022-09-01T00:04:02;98479.53;;;11.58
73265;BMP280;61493;51.008;14.088;2022-09-01T00:06:28;98478.78;;;11.58
73265;BMP280;61493;51.008;14.088;2022-09-01T00:08:58;98474.63;;;11.57
73265;BMP280;61493;51.008;14.088;2022-09-01T00:11:24;98475.03;;;11.55
73265;BMP280;61493;51.008;14.088;2022-09-01T00:13:50;98480.72;;;11.57
73265;BMP280;61493;51.008;14.088;2022-09-01T00:16:17;98477.22;;;11.60
73265;BMP280;61493;51.008;14.088;2022-09-01T00:18:45;98476.47;;;11.60
73265;BMP280;61493;51.008;14.088;2022-09-01T00:21:13;98478.03;;;11.57
73265;BMP280;61493;51.008;14.088;2022-09-01T00:23:39;98480.72;;;11.57
73265;BMP280;61493;51.008;14.088;2022-09-01T00:26:04;98478.88;;;11.54
73265;BMP280;61493;51.008;14.088;2022-09-01T00:28:32;98473.56;;;11.51
73265;BMP280;61493;51.008;14.088;2022-09-01T00:30:57;98471.34;;;11.49
73265;BMP280;61493;51.008;14.088;2022-09-01T00:33:23;98476.22;;;11.51
73265;BMP280;61493;51.008;14.088;2022-09-01T00:35:48;98470.25;;;11.47
73265;BMP280;61493;51.008;14.088;2022-09-01T00:38:13;98472.81;;;11.50
73265;BMP280;61493;51.008;14.088;2022-09-01T00:40:39;98464.09;;;11.50
73265;BMP280;61493;51.008;14.088;2022-09-01T00:43:20;98465.53;;;11.54
73265;BMP280;61493;51.008;14.088;2022-09-01T00:45:46;98468.63;;;11.53
73265;BMP280;61493;51.008;14.088;2022-09-01T00:48:12;98456.03;;;11.53
73265;BMP280;61493;51.008;14.088;2022-09-01T00:50:38;98469.09;;;11.48
73265;BMP280;61493;51.008;14.088;2022-09-01T00:53:04;98464.66;;;11.41
73265;BMP280;61493;51.008;14.088;2022-09-01T00:55:32;98459.41;;;11.34
73265;BMP280;61493;51.008;14.088;2022-09-01T00:58:00;98468.22;;;11.31
73265;BMP280;61493;51.008;14.088;2022-09-01T01:00:30;98466.31;;;11.31
73265;BMP280;61493;51.008;14.088;2022-09-01T01:02:56;98463.47;;;11.42
73265;BMP280;61493;51.008;14.088;2022-09-01T01:05:29;98454.88;;;11.34
73265;BMP280;61493;51.008;14.088;2022-09-01T01:07:58;98457.84;;;11.36
73265;BMP280;61493;51.008;14.088;2022-09-01T01:10:26;98457.09;;;11.36
73265;BMP280;61493;51.008;14.088;2022-09-01T01:12:56;98462.25;;;11.47
73265;BMP280;61493;51.008;14.088;2022-09-01T01:15:25;98459.59;;;11.47
73265;BMP280;61493;51.008;14.088;2022-09-01T01:17:50;98456.97;;;11.43
73265;BMP280;61493;51.008;14.088;2022-09-01T01:20:16;98464.22;;;11.42
73265;BMP280;61493;51.008;14.088;2022-09-01T01:23:06;98454.78;;;11.38
73265;BMP280;61493;51.008;14.088;2022-09-01T01:25:44;98453.63;;;11.39
73265;BMP280;61493;51.008;14.088;2022-09-01T01:28:28;98452.78;;;11.42
73265;BMP280;61493;51.008;14.088;2022-09-01T01:31:01;98450.88;;;11.42
73265;BMP280;61493;51.008;14.088;2022-09-01T01:33:36;98447.81;;;11.44
73265;BMP280;61493;51.008;14.088;2022-09-01T01:36:10;98451.63;;;11.43
73265;BMP280;61493;51.008;14.088;2022-09-01T01:38:42;98455.47;;;11.42
73265;BMP280;61493;51.008;14.088;2022-09-01T01:41:09;98461.53;;;11.42
73265;BMP280;61493;51.008;14.088;2022-09-01T01:43:35;98448.97;;;11.43
73265;BMP280;61493;51.008;14.088;2022-09-01T01:46:04;98453.44;;;11.50
73265;BMP280;61493;51.008;14.088;2022-09-01T01:48:30;98449.59;;;11.51
73265;BMP280;61493;51.008;14.088;2022-09-01T01:50:59;98451.50;;;11.50
73265;BMP280;61493;51.008;14.088;2022-09-01T01:53:26;98453.03;;;11.51
73265;BMP280;61493;51.008;14.088;2022-09-01T01:55:51;98442.56;;;11.60
73265;BMP280;61493;51.008;14.088;2022-09-01T01:58:19;98444.06;;;11.61
73265;BMP280;61493;51.008;14.088;2022-09-01T02:00:46;98446.34;;;11.63
73265;BMP280;61493;51.008;14.088;2022-09-01T02:03:14;98444.22;;;11.74
73265;BMP280;61493;51.008;14.088;2022-09-01T02:05:46;98446.06;;;11.77
73265;BMP280;61493;51.008;14.088;2022-09-01T02:08:12;98449.50;;;11.78
73265;BMP280;61493;51.008;14.088;2022-09-01T02:10:42;98450.31;;;11.74
73265;BMP280;61493;51.008;14.088;2022-09-01T02:13:09;98447.25;;;11.76
73265;BMP280;61493;51.008;14.088;2022-09-01T02:15:41;98449.16;;;11.75
73265;BMP280;61493;51.008;14.088;2022-09-01T02:18:16;98451.00;;;11.79
73265;BMP280;61493;51.008;14.088;2022-09-01T02:20:43;98450.59;;;11.80
73265;BMP280;61493;51.008;14.088;2022-09-01T02:23:10;98452.91;;;11.78
73265;BMP280;61493;51.008;14.088;2022-09-01T02:25:40;98451.06;;;11.75
73265;BMP280;61493;51.008;14.088;2022-09-01T02:28:09;98445.38;;;11.73
73265;BMP280;61493;51.008;14.088;2022-09-01T02:30:41;98457.94;;;11.72
73265;BMP280;61493;51.008;14.088;2022-09-01T02:33:06;98451.88;;;11.72
73265;BMP280;61493;51.008;14.088;2022-09-01T02:35:36;98449.81;;;11.80
73265;BMP280;61493;51.008;14.088;2022-09-01T02:38:03;98447.56;;;11.78
73265;BMP280;61493;51.008;14.088;2022-09-01T02:40:30;98444.16;;;11.78
73265;BMP280;61493;51.008;14.088;2022-09-01T02:42:56;98439.13;;;11.80
73265;BMP280;61493;51.008;14.088;2022-09-01T02:45:23;98442.59;;;11.80
73265;BMP280;61493;51.008;14.088;2022-09-01T02:47:49;98441.75;;;11.83
73265;BMP280;61493;51.008;14.088;2022-09-01T02:50:16;98437.53;;;11.86
73265;BMP280;61493;51.008;14.088;2022-09-01T02:52:46;98438.59;;;11.88
73265;BMP280;61493;51.008;14.088;2022-09-01T02:55:17;98435.53;;;11.90
73265;BMP280;61493;51.008;14.088;2022-09-01T02:57:45;98443.94;;;11.88
73265;BMP280;61493;51.008;14.088;2022-09-01T03:00:13;98431.34;;;11.89
73265;BMP280;61493;51.008;14.088;2022-09-01T03:02:50;98432.53;;;11.88
73265;BMP280;61493;51.008;14.088;2022-09-01T03:05:20;98435.63;;;11.86
73265;BMP280;61493;51.008;14.088;2022-09-01T03:07:57;98432.53;;;11.88
73265;BMP280;61493;51.008;14.088;2022-09-01T03:10:25;98433.63;;;11.90
73265;BMP280;61493;51.008;14.088;2022-09-01T03:12:53;98423.69;;;11.91
73265;BMP280;61493;51.008;14.088;2022-09-01T03:15:19;98428.38;;;11.87
73265;BMP280;61493;51.008;14.088;2022-09-01T03:17:45;98421.09;;;11.87
73265;BMP280;61493;51.008;14.088;2022-09-01T03:20:12;98428.69;;;11.89
73265;BMP280;61493;51.008;14.088;2022-09-01T03:22:37;98427.19;;;11.88
73265;BMP280;61493;51.008;14.088;2022-09-01T03:25:03;98430.34;;;11.83
73265;BMP280;61493;51.008;14.088;2022-09-01T03:27:28;98431.91;;;11.80
73265;BMP280;61493;51.008;14.088;2022-09-01T03:29:54;98430.41;;;11.79
73265;BMP280;61493;51.008;14.088;2022-09-01T03:32:19;98435.44;;;11.73
73265;BMP280;61493;51.008;14.088;2022-09-01T03:34:44;98427.19;;;11.68
73265;BMP280;61493;51.008;14.088;2022-09-01T03:37:09;98426.09;;;11.65
73265;BMP280;61493;51.008;14.088;2022-09-01T03:39:36;98429.94;;;11.64
73265;BMP280;61493;51.008;14.088;2022-09-01T03:42:02;98426.59;;;11.60
73265;BMP280;61493;51.008;14.088;2022-09-01T03:44:27;98420.56;;;11.56
73265;BMP280;61493;51.008;14.088;2022-09-01T03:46:53;98426.72;;;11.53
73265;BMP280;61493;51.008;14.088;2022-09-01T03:49:18;98427.22;;;11.48
73265;BMP280;61493;51.008;14.088;2022-09-01T03:51:51;98424.94;;;11.47
73265;BMP280;61493;51.008;14.088;2022-09-01T03:54:18;98426.09;;;11.46
73265;BMP280;61493;51.008;14.088;2022-09-01T03:56:45;98418.59;;;11.40
73265;BMP280;61493;51.008;14.088;2022-09-01T03:59:10;98430.03;;;11.37
73265;BMP280;61493;51.008;14.088;2022-09-01T04:01:41;98422.47;;;11.36
73265;BMP280;61493;51.008;14.088;2022-09-01T04:04:08;98428.22;;;11.34
73265;BMP280;61493;51.008;14.088;2022-09-01T04:06:38;98431.97;;;11.37
73265;BMP280;61493;51.008;14.088;2022-09-01T04:09:04;98435.03;;;11.35
73265;BMP280;61493;51.008;14.088;2022-09-01T04:11:30;98431.19;;;11.36
73265;BMP280;61493;51.008;14.088;2022-09-01T04:13:56;98433.88;;;11.36
73265;BMP280;61493;51.008;14.088;2022-09-01T04:16:25;98430.31;;;11.43
73265;BMP280;61493;51.008;14.088;2022-09-01T04:19:10;98431.47;;;11.42
73265;BMP280;61493;51.008;14.088;2022-09-01T04:21:50;98424.25;;;11.42
73265;BMP280;61493;51.008;14.088;2022-09-01T04:24:17;98431.16;;;11.40
73265;BMP280;61493;51.008;14.088;2022-09-01T04:26:43;98433.41;;;11.41
73265;BMP280;61493;51.008;14.088;2022-09-01T04:29:13;98439.06;;;11.43
73265;BMP280;61493;51.008;14.088;2022-09-01T04:31:39;98431.38;;;11.49
73265;BMP280;61493;51.008;14.088;2022-09-01T04:34:05;98435.06;;;11.55
73265;BMP280;61493;51.008;14.088;2022-09-01T04:36:41;98436.50;;;11.60
73265;BMP280;61493;51.008;14.088;2022-09-01T04:39:08;98437.59;;;11.62
73265;BMP280;61493;51.008;14.088;2022-09-01T04:41:38;98437.09;;;11.67
73265;BMP280;61493;51.008;14.088;2022-09-01T04:44:05;98444.56;;;11.76
73265;BMP280;61493;51.008;14.088;2022-09-01T04:46:33;98434.50;;;11.84
73265;BMP280;61493;51.008;14.088;2022-09-01T04:49:00;98438.56;;;11.92
73265;BMP280;61493;51.008;14.088;2022-09-01T04:51:27;98440.59;;;12.04
73265;BMP280;61493;51.008;14.088;2022-09-01T04:53:56;98447.53;;;12.18
73265;BMP280;61493;51.008;14.088;2022-09-01T04:56:22;98444.06;;;12.21
73265;BMP280;61493;51.008;14.088;2022-09-01T04:58:50;98447.56;;;12.34
73265;BMP280;61493;51.008;14.088;2022-09-01T05:01:19;98450.69;;;12.49
73265;BMP280;61493;51.008;14.088;2022-09-01T05:03:45;98449.78;;;12.55
73265;BMP280;61493;51.008;14.088;2022-09-01T05:06:18;98452.19;;;12.66
73265;BMP280;61493;51.008;14.088;2022-09-01T05:08:44;98455.38;;;12.77
73265;BMP280;61493;51.008;14.088;2022-09-01T05:11:11;98456.09;;;12.94
73265;BMP280;61493;51.008;14.088;2022-09-01T05:13:37;98461.19;;;13.05
73265;BMP280;61493;51.008;14.088;2022-09-01T05:16:06;98466.63;;;13.17
73265;BMP280;61493;51.008;14.088;2022-09-01T05:18:38;98455.22;;;13.29
73265;BMP280;61493;51.008;14.088;2022-09-01T05:21:05;98461.38;;;13.43
73265;BMP280;61493;51.008;14.088;2022-09-01T05:23:35;98453.88;;;13.38
73265;BMP280;61493;51.008;14.088;2022-09-01T05:26:01;98455.88;;;13.62
73265;BMP280;61493;51.008;14.088;2022-09-01T05:28:39;98453.88;;;13.79
73265;BMP280;61493;51.008;14.088;2022-09-01T05:31:05;98457.88;;;14.00
73265;BMP280;61493;51.008;14.088;2022-09-01T05:33:31;98450.63;;;14.13
73265;BMP280;61493;51.008;14.088;2022-09-01T05:36:00;98459.84;;;14.38
73265;BMP280;61493;51.008;14.088;2022-09-01T05:38:26;98460.00;;;14.56
73265;BMP280;61493;51.008;14.088;2022-09-01T05:40:57;98459.91;;;14.72
73265;BMP280;61493;51.008;14.088;2022-09-01T05:43:23;98449.03;;;14.88
73265;BMP280;61493;51.008;14.088;2022-09-01T05:45:52;98455.91;;;15.46
73265;BMP280;61493;51.008;14.088;2022-09-01T05:48:18;98455.09;;;15.36
73265;BMP280;61493;51.008;14.088;2022-09-01T05:50:45;98454.25;;;15.27
73265;BMP280;61493;51.008;14.088;2022-09-01T05:53:12;98448.25;;;15.22
73265;BMP280;61493;51.008;14.088;2022-09-01T05:55:45;98461.84;;;15.28
73265;BMP280;61493;51.008;14.088;2022-09-01T05:58:12;98452.09;;;15.34
73265;BMP280;61493;51.008;14.088;2022-09-01T06:00:43;98448.31;;;15.32
73265;BMP280;61493;51.008;14.088;2022-09-01T06:03:11;98455.41;;;15.04
73265;BMP280;61493;51.008;14.088;2022-09-01T06:05:38;98452.28;;;15.18
73265;BMP280;61493;51.008;14.088;2022-09-01T06:08:05;98451.94;;;15.16
73265;BMP280;61493;51.008;14.088;2022-09-01T06:10:32;98454.94;;;15.18
73265;BMP280;61493;51.008;14.088;2022-09-01T06:12:59;98450.19;;;15.44
73265;BMP280;61493;51.008;14.088;2022-09-01T06:15:31;98462.94;;;15.52
73265;BMP280;61493;51.008;14.088;2022-09-01T06:17:58;98462.75;;;15.69
73265;BMP280;61493;51.008;14.088;2022-09-01T06:20:27;98458.59;;;15.77
73265;BMP280;61493;51.008;14.088;2022-09-01T06:23:00;98460.28;;;15.83
73265;BMP280;61493;51.008;14.088;2022-09-01T06:25:27;98460.75;;;15.91
73265;BMP280;61493;51.008;14.088;2022-09-01T06:27:55;98464.66;;;15.99
73265;BMP280;61493;51.008;14.088;2022-09-01T06:30:20;98464.97;;;15.92
73265;BMP280;61493;51.008;14.088;2022-09-01T06:32:47;98458.47;;;16.11
73265;BMP280;61493;51.008;14.088;2022-09-01T06:35:17;98458.50;;;16.20
73265;BMP280;61493;51.008;14.088;2022-09-01T06:37:45;98468.78;;;16.22
73265;BMP280;61493;51.008;14.088;2022-09-01T06:40:15;98471.22;;;16.29
73265;BMP280;61493;51.008;14.088;2022-09-01T06:42:47;98467.78;;;16.29
73265;BMP280;61493;51.008;14.088;2022-09-01T06:45:17;98459.59;;;16.41
73265;BMP280;61493;51.008;14.088;2022-09-01T06:47:44;98466.63;;;16.39
73265;BMP280;61493;51.008;14.088;2022-09-01T06:50:15;98468.13;;;16.58
73265;BMP280;61493;51.008;14.088;2022-09-01T06:52:44;98478.84;;;16.40
73265;BMP280;61493;51.008;14.088;2022-09-01T06:55:11;98474.69;;;16.39
73265;BMP280;61493;51.008;14.088;2022-09-01T06:57:38;98469.00;;;16.46
73265;BMP280;61493;51.008;14.088;2022-09-01T07:00:11;98482.16;;;16.44
73265;BMP280;61493;51.008;14.088;2022-09-01T07:02:46;98479.72;;;16.28
73265;BMP280;61493;51.008;14.088;2022-09-01T07:05:11;98473.34;;;16.52
73265;BMP280;61493;51.008;14.088;2022-09-01T07:07:41;98480.69;;;16.70
73265;BMP280;61493;51.008;14.088;2022-09-01T07:10:07;98484.59;;;16.69
73265;BMP280;61493;51.008;14.088;2022-09-01T07:12:32;98485.94;;;16.83
73265;BMP280;61493;51.008;14.088;2022-09-01T07:15:00;98493.00;;;17.08
73265;BMP280;61493;51.008;14.088;2022-09-01T07:17:29;98483.13;;;17.41
73265;BMP280;61493;51.008;14.088;2022-09-01T07:19:57;98492.19;;;17.62
73265;BMP280;61493;51.008;14.088;2022-09-01T07:22:24;98489.88;;;17.79
73265;BMP280;61493;51.008;14.088;2022-09-01T07:24:49;98490.16;;;17.90
73265;BMP280;61493;51.008;14.088;2022-09-01T07:27:23;98492.50;;;18.06
73265;BMP280;61493;51.008;14.088;2022-09-01T07:29:53;98489.72;;;17.92
73265;BMP280;61493;51.008;14.088;2022-09-01T07:32:22;98491.59;;;18.09
73265;BMP280;61493;51.008;14.088;2022-09-01T07:34:48;98484.75;;;18.32
73265;BMP280;61493;51.008;14.088;2022-09-01T07:37:16;98485.53;;;18.47
73265;BMP280;61493;51.008;14.088;2022-09-01T07:39:45;98488.94;;;18.33
73265;BMP280;61493;51.008;14.088;2022-09-01T07:42:11;98495.06;;;18.57
73265;BMP280;61493;51.008;14.088;2022-09-01T07:44:38;98493.44;;;18.75
73265;BMP280;61493;51.008;14.088;2022-09-01T07:47:17;98499.72;;;18.81
73265;BMP280;61493;51.008;14.088;2022-09-01T07:49:43;98500.59;;;19.02
73265;BMP280;61493;51.008;14.088;2022-09-01T07:52:09;98497.81;;;19.11
73265;BMP280;61493;51.008;14.088;2022-09-01T07:54:34;98502.97;;;19.38
73265;BMP280;61493;51.008;14.088;2022-09-01T07:57:01;98497.94;;;19.46
73265;BMP280;61493;51.008;14.088;2022-09-01T07:59:27;98504.44;;;19.69
73265;BMP280;61493;51.008;14.088;2022-09-01T08:01:53;98508.94;;;19.57
73265;BMP280;61493;51.008;14.088;2022-09-01T08:04:20;98498.31;;;19.68
73265;BMP280;61493;51.008;14.088;2022-09-01T08:06:47;98504.16;;;19.37
73265;BMP280;61493;51.008;14.088;2022-09-01T08:09:16;98510.03;;;19.36
73265;BMP280;61493;51.008;14.088;2022-09-01T08:11:41;98500.53;;;19.25
73265;BMP280;61493;51.008;14.088;2022-09-01T08:14:06;98503.69;;;19.24
73265;BMP280;61493;51.008;14.088;2022-09-01T08:16:32;98505.72;;;19.14
73265;BMP280;61493;51.008;14.088;2022-09-01T08:18:58;98515.34;;;19.45
73265;BMP280;61493;51.008;14.088;2022-09-01T08:21:24;98516.38;;;19.47
73265;BMP280;61493;51.008;14.088;2022-09-01T08:23:52;98519.44;;;19.55
73265;BMP280;61493;51.008;14.088;2022-09-01T08:26:21;98514.78;;;19.70
73265;BMP280;61493;51.008;14.088;2022-09-01T08:28:47;98509.53;;;19.96
73265;BMP280;61493;51.008;14.088;2022-09-01T08:31:15;98522.00;;;20.08
73265;BMP280;61493;51.008;14.088;2022-09-01T08:33:44;98527.66;;;20.10
73265;BMP280;61493;51.008;14.088;2022-09-01T08:36:13;98522.81;;;20.14
73265;BMP280;61493;51.008;14.088;2022-09-01T08:38:41;98525.28;;;20.53
73265;BMP280;61493;51.008;14.088;2022-09-01T08:41:21;98525.47;;;20.49
73265;BMP280;61493;51.008;14.088;2022-09-01T08:46:32;98515.72;;;21.24
73265;BMP280;61493;51.008;14.088;2022-09-01T08:49:28;98516.72;;;21.26
73265;BMP280;61493;51.008;14.088;2022-09-01T08:55:21;98521.97;;;21.98
73265;BMP280;61493;51.008;14.088;2022-09-01T08:57:54;98527.56;;;22.26
73265;BMP280;61493;51.008;14.088;2022-09-01T09:00:38;98515.50;;;22.33
73265;BMP280;61493;51.008;14.088;2022-09-01T09:11:02;98520.41;;;22.99
73265;BMP280;61493;51.008;14.088;2022-09-01T09:13:38;98527.31;;;23.06
73265;BMP280;61493;51.008;14.088;2022-09-01T09:16:20;98519.91;;;23.34
73265;BMP280;61493;51.008;14.088;2022-09-01T09:21:52;98523.28;;;25.30
73265;BMP280;61493;51.008;14.088;2022-09-01T09:24:33;98514.03;;;25.69
73265;BMP280;61493;51.008;14.088;2022-09-01T09:27:17;98519.03;;;27.41
73265;BMP280;61493;51.008;14.088;2022-09-01T09:29:46;98518.94;;;28.20
73265;BMP280;61493;51.008;14.088;2022-09-01T09:32:12;98511.13;;;28.37
73265;BMP280;61493;51.008;14.088;2022-09-01T09:34:41;98517.13;;;28.56
73265;BMP280;61493;51.008;14.088;2022-09-01T09:37:28;98520.75;;;28.93
73265;BMP280;61493;51.008;14.088;2022-09-01T09:42:27;98507.72;;;30.37
73265;BMP280;61493;51.008;14.088;2022-09-01T09:44:53;98507.94;;;31.15
73265;BMP280;61493;51.008;14.088;2022-09-01T09:47:38;98513.06;;;30.43
73265;BMP280;61493;51.008;14.088;2022-09-01T09:50:18;98505.41;;;29.47
73265;BMP280;61493;51.008;14.088;2022-09-01T09:53:12;98508.88;;;28.90
73265;BMP280;61493;51.008;14.088;2022-09-01T09:58:28;98502.59;;;31.17
73265;BMP280;61493;51.008;14.088;2022-09-01T10:01:10;98500.47;;;32.70
73265;BMP280;61493;51.008;14.088;2022-09-01T10:04:00;98499.59;;;34.91
73265;BMP280;61493;51.008;14.088;2022-09-01T10:06:37;98499.66;;;34.36
73265;BMP280;61493;51.008;14.088;2022-09-01T10:09:07;98502.94;;;34.90
73265;BMP280;61493;51.008;14.088;2022-09-01T10:11:40;98499.16;;;35.05
73265;BMP280;61493;51.008;14.088;2022-09-01T10:14:16;98493.81;;;32.73
73265;BMP280;61493;51.008;14.088;2022-09-01T10:16:43;98503.25;;;31.40
73265;BMP280;61493;51.008;14.088;2022-09-01T10:19:13;98503.75;;;29.44
73265;BMP280;61493;51.008;14.088;2022-09-01T10:21:40;98493.75;;;28.01
73265;BMP280;61493;51.008;14.088;2022-09-01T10:24:18;98495.72;;;26.63
73265;BMP280;61493;51.008;14.088;2022-09-01T10:26:49;98497.38;;;25.48
73265;BMP280;61493;51.008;14.088;2022-09-01T10:29:23;98494.13;;;24.95
73265;BMP280;61493;51.008;14.088;2022-09-01T10:31:54;98501.75;;;24.15
73265;BMP280;61493;51.008;14.088;2022-09-01T10:34:20;98500.91;;;22.95
73265;BMP280;61493;51.008;14.088;2022-09-01T10:36:47;98504.53;;;22.75
73265;BMP280;61493;51.008;14.088;2022-09-01T10:39:16;98502.91;;;22.30
73265;BMP280;61493;51.008;14.088;2022-09-01T10:41:44;98501.25;;;21.95
73265;BMP280;61493;51.008;14.088;2022-09-01T10:44:35;98507.44;;;21.64
73265;BMP280;61493;51.008;14.088;2022-09-01T10:47:09;98506.81;;;21.18
73265;BMP280;61493;51.008;14.088;2022-09-01T10:52:09;98501.69;;;20.74
73265;BMP280;61493;51.008;14.088;2022-09-01T10:57:10;98503.13;;;20.49
73265;BMP280;61493;51.008;14.088;2022-09-01T10:59:45;98502.56;;;20.45
73265;BMP280;61493;51.008;14.088;2022-09-01T11:02:19;98501.88;;;20.29
73265;BMP280;61493;51.008;14.088;2022-09-01T11:12:31;98504.91;;;20.02
73265;BMP280;61493;51.008;14.088;2022-09-01T11:15:32;98505.34;;;19.95
73265;BMP280;61493;51.008;14.088;2022-09-01T11:17:58;98500.66;;;20.10
73265;BMP280;61493;51.008;14.088;2022-09-01T11:20:37;98502.81;;;20.06
73265;BMP280;61493;51.008;14.088;2022-09-01T11:23:09;98500.94;;;20.33
73265;BMP280;61493;51.008;14.088;2022-09-01T11:25:42;98492.22;;;20.23
73265;BMP280;61493;51.008;14.088;2022-09-01T11:30:46;98498.31;;;20.38
73265;BMP280;61493;51.008;14.088;2022-09-01T11:36:35;98492.84;;;20.53
73265;BMP280;61493;51.008;14.088;2022-09-01T11:39:41;98492.34;;;20.75
73265;BMP280;61493;51.008;14.088;2022-09-01T11:42:11;98485.78;;;20.81
73265;BMP280;61493;51.008;14.088;2022-09-01T11:44:45;98489.78;;;20.86
73265;BMP280;61493;51.008;14.088;2022-09-01T11:47:17;98496.44;;;21.16
73265;BMP280;61493;51.008;14.088;2022-09-01T11:49:58;98487.59;;;21.42
73265;BMP280;61493;51.008;14.088;2022-09-01T11:52:27;98485.09;;;21.07
73265;BMP280;61493;51.008;14.088;2022-09-01T11:54:54;98492.59;;;20.97
73265;BMP280;61493;51.008;14.088;2022-09-01T11:57:37;98492.97;;;21.10
73265;BMP280;61493;51.008;14.088;2022-09-01T12:00:06;98490.63;;;20.97
73265;BMP280;61493;51.008;14.088;2022-09-01T12:02:34;98488.47;;;22.01
73265;BMP280;61493;51.008;14.088;2022-09-01T12:05:02;98484.41;;;22.28
73265;BMP280;61493;51.008;14.088;2022-09-01T12:07:44;98482.88;;;22.16
73265;BMP280;61493;51.008;14.088;2022-09-01T12:10:34;98486.19;;;22.37
73265;BMP280;61493;51.008;14.088;2022-09-01T12:13:04;98488.16;;;22.36
73265;BMP280;61493;51.008;14.088;2022-09-01T12:15:32;98486.16;;;22.31
73265;BMP280;61493;51.008;14.088;2022-09-01T12:18:17;98489.03;;;22.17
73265;BMP280;61493;51.008;14.088;2022-09-01T12:20:48;98481.22;;;22.35
73265;BMP280;61493;51.008;14.088;2022-09-01T12:23:32;98489.13;;;22.33
73265;BMP280;61493;51.008;14.088;2022-09-01T12:26:09;98477.44;;;23.26
73265;BMP280;61493;51.008;14.088;2022-09-01T12:28:36;98485.50;;;23.98
73265;BMP280;61493;51.008;14.088;2022-09-01T12:31:07;98482.56;;;23.90
73265;BMP280;61493;51.008;14.088;2022-09-01T12:33:36;98481.34;;;23.86
73265;BMP280;61493;51.008;14.088;2022-09-01T12:38:51;98475.53;;;24.17
73265;BMP280;61493;51.008;14.088;2022-09-01T12:43:54;98472.66;;;23.99
73265;BMP280;61493;51.008;14.088;2022-09-01T12:46:43;98481.06;;;24.88
73265;BMP280;61493;51.008;14.088;2022-09-01T12:49:22;98473.94;;;25.64
73265;BMP280;61493;51.008;14.088;2022-09-01T12:54:32;98473.44;;;23.88
73265;BMP280;61493;51.008;14.088;2022-09-01T12:56:57;98468.25;;;23.79
73265;BMP280;61493;51.008;14.088;2022-09-01T12:59:25;98464.13;;;23.39
73265;BMP280;61493;51.008;14.088;2022-09-01T13:01:53;98467.34;;;23.09
73265;BMP280;61493;51.008;14.088;2022-09-01T13:04:29;98471.78;;;23.01
73265;BMP280;61493;51.008;14.088;2022-09-01T13:07:04;98470.31;;;23.11
73265;BMP280;61493;51.008;14.088;2022-09-01T13:09:36;98464.25;;;22.40
73265;BMP280;61493;51.008;14.088;2022-09-01T13:12:17;98463.88;;;21.62
73265;BMP280;61493;51.008;14.088;2022-09-01T13:14:43;98457.94;;;21.58
73265;BMP280;61493;51.008;14.088;2022-09-01T13:17:08;98455.66;;;21.88
73265;BMP280;61493;51.008;14.088;2022-09-01T13:19:33;98454.16;;;21.82
73265;BMP280;61493;51.008;14.088;2022-09-01T13:21:59;98461.34;;;22.50
73265;BMP280;61493;51.008;14.088;2022-09-01T13:24:27;98451.47;;;22.58
73265;BMP280;61493;51.008;14.088;2022-09-01T13:26:52;98448.31;;;22.93
73265;BMP280;61493;51.008;14.088;2022-09-01T13:29:22;98456.47;;;23.04
73265;BMP280;61493;51.008;14.088;2022-09-01T13:31:58;98445.38;;;22.96
73265;BMP280;61493;51.008;14.088;2022-09-01T13:34:23;98455.50;;;23.01
73265;BMP280;61493;51.008;14.088;2022-09-01T13:36:49;98444.59;;;22.62
73265;BMP280;61493;51.008;14.088;2022-09-01T13:39:14;98447.50;;;22.36
73265;BMP280;61493;51.008;14.088;2022-09-01T13:41:40;98451.16;;;21.74
73265;BMP280;61493;51.008;14.088;2022-09-01T13:44:05;98452.66;;;21.44
73265;BMP280;61493;51.008;14.088;2022-09-01T13:46:31;98450.78;;;21.61
73265;BMP280;61493;51.008;14.088;2022-09-01T13:48:56;98450.59;;;21.33
73265;BMP280;61493;51.008;14.088;2022-09-01T13:51:25;98454.75;;;21.28
73265;BMP280;61493;51.008;14.088;2022-09-01T13:53:51;98453.31;;;21.33
73265;BMP280;61493;51.008;14.088;2022-09-01T13:56:17;98454.56;;;21.37
73265;BMP280;61493;51.008;14.088;2022-09-01T13:58:42;98452.66;;;21.44
73265;BMP280;61493;51.008;14.088;2022-09-01T14:01:09;98446.84;;;20.99
73265;BMP280;61493;51.008;14.088;2022-09-01T14:03:36;98447.66;;;20.79
73265;BMP280;61493;51.008;14.088;2022-09-01T14:06:01;98451.75;;;20.49
73265;BMP280;61493;51.008;14.088;2022-09-01T14:08:27;98451.22;;;20.45
73265;BMP280;61493;51.008;14.088;2022-09-01T14:10:53;98441.06;;;20.19
73265;BMP280;61493;51.008;14.088;2022-09-01T14:13:23;98440.53;;;20.15
73265;BMP280;61493;51.008;14.088;2022-09-01T14:15:48;98443.53;;;20.38
73265;BMP280;61493;51.008;14.088;2022-09-01T14:18:15;98436.25;;;20.44
73265;BMP280;61493;51.008;14.088;2022-09-01T14:20:44;98436.25;;;20.44
73265;BMP280;61493;51.008;14.088;2022-09-01T14:23:11;98430.00;;;20.17
73265;BMP280;61493;51.008;14.088;2022-09-01T14:25:44;98441.13;;;20.25
73265;BMP280;61493;51.008;14.088;2022-09-01T14:28:09;98433.06;;;19.90
73265;BMP280;61493;51.008;14.088;2022-09-01T14:30:35;98436.00;;;19.86
73265;BMP280;61493;51.008;14.088;2022-09-01T14:33:02;98436.00;;;19.86
73265;BMP280;61493;51.008;14.088;2022-09-01T14:35:29;98446.31;;;19.88
73265;BMP280;61493;51.008;14.088;2022-09-01T14:37:57;98434.59;;;19.76
73265;BMP280;61493;51.008;14.088;2022-09-01T14:40:23;98440.38;;;19.84
73265;BMP280;61493;51.008;14.088;2022-09-01T14:42:50;98432.41;;;19.95
73265;BMP280;61493;51.008;14.088;2022-09-01T14:45:22;98438.66;;;20.01
73265;BMP280;61493;51.008;14.088;2022-09-01T14:47:51;98441.03;;;19.79
73265;BMP280;61493;51.008;14.088;2022-09-01T14:50:18;98432.88;;;19.93
73265;BMP280;61493;51.008;14.088;2022-09-01T14:52:47;98438.38;;;19.99
73265;BMP280;61493;51.008;14.088;2022-09-01T14:55:13;98433.38;;;20.12
73265;BMP280;61493;51.008;14.088;2022-09-01T14:57:39;98434.00;;;20.02
73265;BMP280;61493;51.008;14.088;2022-09-01T15:00:07;98434.47;;;20.20